createdAt,value
2023-01-26T00:01:29.511Z,11.57
2023-01-26T00:03:57.939Z,11.70
2023-01-26T00:06:26.499Z,16.33
2023-01-26T00:08:56.280Z,18.98
2023-01-26T00:11:27.766Z,19.38
2023-01-26T00:13:58.533Z,23.13
2023-01-26T00:16:27.513Z,25.63
2023-01-26T00:18:55.316Z,20.05
2023-01-26T00:21:24.516Z,19.85
2023-01-26T00:23:53.505Z,19.20
2023-01-26T00:26:23.240Z,24.13
2023-01-26T00:28:51.213Z,22.15
2023-01-26T00:31:22.835Z,20.23
2023-01-26T00:33:51.638Z,22.02
2023-01-26T00:36:19.525Z,23.65
2023-01-26T00:38:48.220Z,19.67
2023-01-26T00:41:30.012Z,25.90
2023-01-26T00:43:58.296Z,26.17
2023-01-26T00:46:27.869Z,21.83
2023-01-26T00:48:55.710Z,22.45
2023-01-26T00:51:24.019Z,25.95
2023-01-26T00:53:51.864Z,21.63
2023-01-26T00:56:20.251Z,30.63
2023-01-26T00:58:48.138Z,24.90
2023-01-26T01:01:15.995Z,22.63
2023-01-26T01:03:45.408Z,21.75
2023-01-26T01:06:13.184Z,20.92
2023-01-26T01:08:41.026Z,23.63
2023-01-26T01:11:11.090Z,23.17
2023-01-26T01:13:39.239Z,26.17
2023-01-26T01:16:08.339Z,27.17
2023-01-26T01:18:36.769Z,29.27
2023-01-26T01:21:08.900Z,23.60
2023-01-26T01:23:37.389Z,23.95
2023-01-26T01:26:06.440Z,25.33
2023-01-26T01:28:35.657Z,26.30
2023-01-26T01:31:05.356Z,23.67
2023-01-26T01:33:33.815Z,26.92
2023-01-26T01:36:03.219Z,26.00
2023-01-26T01:38:32.937Z,23.67
2023-01-26T01:41:00.766Z,27.35
2023-01-26T01:43:30.035Z,28.52
2023-01-26T01:46:00.109Z,23.30
2023-01-26T01:48:32.282Z,24.52
2023-01-26T01:51:05.173Z,28.50
2023-01-26T01:53:40.131Z,30.10
2023-01-26T01:56:13.182Z,29.98
2023-01-26T01:58:44.323Z,28.23
2023-01-26T02:01:12.648Z,30.58
2023-01-26T02:03:43.865Z,29.13
2023-01-26T02:06:16.016Z,27.45
2023-01-26T02:08:49.147Z,30.35
2023-01-26T02:11:21.474Z,32.33
2023-01-26T02:13:50.778Z,30.83
2023-01-26T02:16:19.210Z,30.35
2023-01-26T02:18:48.104Z,27.95
2023-01-26T02:21:18.513Z,24.45
2023-01-26T02:24:05.259Z,27.13
2023-01-26T02:26:36.446Z,28.10
2023-01-26T02:29:07.495Z,28.30
2023-01-26T02:31:39.132Z,28.92
2023-01-26T02:34:08.088Z,28.10
2023-01-26T02:36:36.461Z,31.65
2023-01-26T02:39:26.136Z,32.38
2023-01-26T02:42:13.791Z,31.75
2023-01-26T02:44:44.312Z,26.92
2023-01-26T02:47:15.032Z,31.88
2023-01-26T02:49:48.235Z,28.60
2023-01-26T02:52:19.573Z,35.28
2023-01-26T02:55:11.230Z,34.35
2023-01-26T02:57:40.747Z,39.33
2023-01-26T03:00:10.912Z,36.78
2023-01-26T03:02:40.669Z,38.40
2023-01-26T03:05:09.132Z,39.45
2023-01-26T03:07:37.833Z,31.00
2023-01-26T03:10:07.291Z,40.33
2023-01-26T03:12:35.395Z,45.80
2023-01-26T03:15:23.441Z,37.88
2023-01-26T03:17:51.410Z,40.78
2023-01-26T03:20:37.381Z,45.13
2023-01-26T03:23:22.767Z,38.17
2023-01-26T03:26:11.860Z,35.63
2023-01-26T03:28:39.810Z,38.03
2023-01-26T03:31:08.934Z,39.95
2023-01-26T03:33:36.852Z,41.05
2023-01-26T03:36:05.935Z,37.83
2023-01-26T03:38:33.778Z,43.50
2023-01-26T03:41:19.073Z,44.78
2023-01-26T03:44:04.328Z,46.83
2023-01-26T03:46:52.948Z,48.72
2023-01-26T03:49:38.446Z,48.08
2023-01-26T03:52:25.382Z,49.08
2023-01-26T03:55:10.696Z,47.45
2023-01-26T03:57:38.663Z,45.75
2023-01-26T04:00:07.899Z,48.50
2023-01-26T04:02:59.436Z,42.72
2023-01-26T04:05:45.503Z,41.50
2023-01-26T04:08:23.874Z,46.40
2023-01-26T04:10:57.651Z,46.72
2023-01-26T04:13:44.134Z,40.88
2023-01-26T04:16:37.864Z,41.50
2023-01-26T04:19:24.497Z,40.67
2023-01-26T04:21:52.330Z,40.38
2023-01-26T04:24:22.292Z,43.50
2023-01-26T04:27:15.335Z,38.97
2023-01-26T04:29:44.180Z,41.72
2023-01-26T04:32:12.068Z,39.88
2023-01-26T04:34:42.283Z,43.95
2023-01-26T04:37:19.760Z,38.58
2023-01-26T04:39:49.030Z,37.05
2023-01-26T04:42:17.901Z,41.50
2023-01-26T04:44:45.932Z,37.55
2023-01-26T04:47:13.769Z,42.33
2023-01-26T04:49:43.027Z,41.78
2023-01-26T04:52:10.982Z,42.47
2023-01-26T04:54:39.977Z,44.42
2023-01-26T04:57:08.132Z,45.38
2023-01-26T04:59:37.837Z,42.92
2023-01-26T05:02:06.001Z,43.10
2023-01-26T05:04:33.974Z,47.08
2023-01-26T05:07:04.115Z,39.95
2023-01-26T05:09:32.199Z,41.85
2023-01-26T05:12:34.715Z,43.38
2023-01-26T05:15:31.641Z,39.55
2023-01-26T05:18:19.727Z,46.22
2023-01-26T05:20:52.889Z,43.17
2023-01-26T05:23:29.411Z,50.20
2023-01-26T05:26:06.387Z,45.47
2023-01-26T05:28:44.850Z,43.40
2023-01-26T05:31:13.572Z,38.38
2023-01-26T05:33:41.469Z,48.50
2023-01-26T05:36:11.294Z,47.85
2023-01-26T05:38:40.727Z,50.10
2023-01-26T05:41:09.137Z,43.95
2023-01-26T05:43:52.109Z,42.70
2023-01-26T05:46:35.655Z,49.60
2023-01-26T05:49:03.802Z,53.50
2023-01-26T05:51:31.771Z,46.72
2023-01-26T05:54:01.538Z,44.17
2023-01-26T05:56:29.467Z,46.78
2023-01-26T05:59:01.891Z,46.00
2023-01-26T06:01:30.085Z,50.55
2023-01-26T06:04:01.803Z,46.13
2023-01-26T06:06:36.844Z,57.42
2023-01-26T06:09:22.825Z,47.90
2023-01-26T06:12:16.356Z,50.55
2023-01-26T06:15:00.117Z,47.05
2023-01-26T06:17:38.677Z,48.70
2023-01-26T06:20:11.343Z,48.78
2023-01-26T06:22:39.786Z,47.60
2023-01-26T06:25:09.942Z,40.65
2023-01-26T06:27:42.038Z,48.28
2023-01-26T06:30:17.247Z,48.72
2023-01-26T06:32:48.517Z,41.63
2023-01-26T06:35:16.805Z,55.78
2023-01-26T06:37:45.492Z,49.35
2023-01-26T06:40:15.170Z,58.22
2023-01-26T06:42:48.269Z,52.95
2023-01-26T06:45:17.537Z,51.83
2023-01-26T06:47:48.802Z,69.63
2023-01-26T06:50:24.338Z,77.00
2023-01-26T06:52:53.342Z,58.15
2023-01-26T06:55:41.875Z,52.33
2023-01-26T06:58:39.185Z,47.63
2023-01-26T07:01:27.683Z,62.47
2023-01-26T07:03:56.437Z,47.53
2023-01-26T07:06:24.349Z,41.50
2023-01-26T07:08:52.198Z,43.80
2023-01-26T07:11:22.093Z,38.78
2023-01-26T07:13:50.026Z,41.25
2023-01-26T07:16:18.802Z,39.30
2023-01-26T07:18:46.603Z,45.47
2023-01-26T07:21:18.405Z,45.22
2023-01-26T07:23:47.305Z,46.40
2023-01-26T07:26:15.525Z,51.30
2023-01-26T07:28:44.973Z,43.28
2023-01-26T07:31:13.706Z,43.85
2023-01-26T07:33:41.634Z,47.08
2023-01-26T07:36:11.053Z,46.28
2023-01-26T07:38:39.003Z,45.28
2023-01-26T07:41:09.157Z,47.97
2023-01-26T07:43:38.260Z,51.40
2023-01-26T07:46:12.271Z,47.15
2023-01-26T07:48:41.698Z,38.58
2023-01-26T07:51:11.030Z,40.28
2023-01-26T07:53:41.184Z,40.05
2023-01-26T07:56:11.373Z,48.42
2023-01-26T07:58:39.802Z,50.80
2023-01-26T08:01:09.974Z,41.40
2023-01-26T08:03:39.977Z,36.80
2023-01-26T08:06:11.688Z,43.78
2023-01-26T08:08:40.935Z,44.95
2023-01-26T08:11:09.250Z,46.97
2023-01-26T08:13:37.155Z,39.55
2023-01-26T08:16:06.811Z,46.92
2023-01-26T08:18:34.624Z,43.58
2023-01-26T08:21:04.723Z,54.47
2023-01-26T08:23:32.610Z,48.47
2023-01-26T08:26:02.206Z,44.95
2023-01-26T08:28:30.370Z,42.05
2023-01-26T08:30:58.320Z,39.53
2023-01-26T08:33:26.531Z,48.08
2023-01-26T08:35:54.312Z,45.00
2023-01-26T08:38:23.488Z,42.75
2023-01-26T08:40:53.722Z,49.30
2023-01-26T08:43:21.505Z,47.05
2023-01-26T08:45:49.472Z,41.42
2023-01-26T08:48:18.187Z,39.17
2023-01-26T08:50:46.165Z,41.55
2023-01-26T08:53:14.364Z,41.40
2023-01-26T08:55:43.562Z,42.05
2023-01-26T08:58:11.418Z,34.80
2023-01-26T09:00:39.282Z,38.30
2023-01-26T09:03:07.906Z,35.53
2023-01-26T09:05:37.868Z,41.35
2023-01-26T09:08:07.163Z,25.95
2023-01-26T09:10:35.248Z,34.40
2023-01-26T09:13:04.621Z,36.03
2023-01-26T09:15:32.401Z,40.63
2023-01-26T09:18:01.132Z,44.83
2023-01-26T09:20:29.709Z,52.95
2023-01-26T09:22:57.508Z,50.15
2023-01-26T09:25:25.340Z,40.78
2023-01-26T09:27:53.085Z,38.55
2023-01-26T09:30:26.247Z,42.80
2023-01-26T09:32:54.152Z,50.45
2023-01-26T09:35:21.927Z,41.85
2023-01-26T09:37:49.781Z,39.33
2023-01-26T09:40:20.811Z,39.13
2023-01-26T09:43:01.777Z,43.38
2023-01-26T09:45:40.419Z,60.15
2023-01-26T09:48:25.189Z,55.30
2023-01-26T09:50:59.314Z,55.47
2023-01-26T09:53:33.435Z,50.50
2023-01-26T09:56:01.973Z,49.33
2023-01-26T09:58:36.631Z,44.05
2023-01-26T10:01:13.469Z,50.20
2023-01-26T10:03:48.273Z,48.83
2023-01-26T10:06:22.709Z,43.50
2023-01-26T10:09:18.720Z,52.25
2023-01-26T10:11:49.726Z,46.53
2023-01-26T10:14:22.544Z,40.30
2023-01-26T10:16:54.904Z,51.10
2023-01-26T10:19:34.204Z,54.15
2023-01-26T10:22:09.017Z,46.40
2023-01-26T10:24:37.188Z,46.67
2023-01-26T10:27:14.074Z,50.40
2023-01-26T10:29:41.891Z,50.47
2023-01-26T10:32:15.436Z,55.03
2023-01-26T10:34:44.437Z,51.05
2023-01-26T10:37:22.821Z,41.75
2023-01-26T10:39:59.868Z,44.75
2023-01-26T10:42:30.910Z,41.03
2023-01-26T10:45:01.988Z,45.22
2023-01-26T10:47:31.661Z,44.83
2023-01-26T10:50:21.254Z,48.15
2023-01-26T10:52:59.508Z,43.03
2023-01-26T10:55:27.367Z,45.97
2023-01-26T10:57:55.256Z,34.50
2023-01-26T11:00:29.855Z,35.85
2023-01-26T11:03:06.212Z,38.83
2023-01-26T11:05:34.449Z,38.33
2023-01-26T11:08:03.621Z,35.88
2023-01-26T11:10:33.576Z,30.88
2023-01-26T11:13:11.621Z,34.50
2023-01-26T11:15:42.381Z,41.65
2023-01-26T11:18:22.555Z,38.05
2023-01-26T11:21:00.223Z,40.45
2023-01-26T11:23:54.377Z,41.13
2023-01-26T11:26:55.045Z,39.70
2023-01-26T11:29:38.878Z,36.60
2023-01-26T11:32:21.490Z,38.55
2023-01-26T11:35:01.821Z,34.15
2023-01-26T11:37:41.049Z,38.38
2023-01-26T11:40:24.767Z,33.42
2023-01-26T11:43:07.194Z,26.08
2023-01-26T11:45:44.722Z,34.03
2023-01-26T11:48:24.639Z,36.22
2023-01-26T11:50:58.823Z,40.25
2023-01-26T11:53:47.999Z,34.90
2023-01-26T11:56:30.224Z,42.45
2023-01-26T11:59:02.769Z,31.75
2023-01-26T12:04:00.340Z,36.67
2023-01-26T12:06:38.289Z,40.58
2023-01-26T12:09:12.694Z,35.22
2023-01-26T12:11:47.188Z,36.25
2023-01-26T12:14:23.263Z,28.70
2023-01-26T12:17:26.291Z,35.70
2023-01-26T12:20:04.530Z,35.08
2023-01-26T12:22:36.417Z,34.95
2023-01-26T12:25:20.822Z,34.42
2023-01-26T12:27:56.782Z,38.67
2023-01-26T12:30:31.802Z,39.25
2023-01-26T12:33:00.197Z,40.15
2023-01-26T12:35:49.992Z,40.67
2023-01-26T12:38:25.398Z,40.65
2023-01-26T12:41:04.761Z,39.42
2023-01-26T12:43:55.052Z,41.20
2023-01-26T12:46:25.009Z,35.03
2023-01-26T12:48:56.815Z,44.17
2023-01-26T12:51:29.592Z,45.13
2023-01-26T12:54:04.220Z,42.70
2023-01-26T12:56:36.097Z,43.08
2023-01-26T12:59:10.623Z,72.13
2023-01-26T13:01:41.690Z,74.35
2023-01-26T13:04:12.741Z,69.82
2023-01-26T13:06:40.948Z,40.72
2023-01-26T13:09:25.659Z,41.83
2023-01-26T13:11:55.291Z,45.75
2023-01-26T13:14:39.657Z,47.75
2023-01-26T13:17:49.787Z,37.95
2023-01-26T13:20:51.039Z,47.72
2023-01-26T13:23:43.559Z,45.35
2023-01-26T13:26:21.169Z,52.15
2023-01-26T13:28:50.827Z,44.83
2023-01-26T13:31:34.077Z,42.95
2023-01-26T13:34:07.369Z,45.88
2023-01-26T13:36:39.000Z,47.75
2023-01-26T13:39:15.117Z,43.87
2023-01-26T13:41:48.779Z,42.88
2023-01-26T13:44:22.176Z,47.83
2023-01-26T13:46:55.211Z,38.42
2023-01-26T13:49:27.777Z,44.15
2023-01-26T13:51:55.692Z,51.97
2023-01-26T13:54:26.181Z,49.58
2023-01-26T13:57:03.896Z,52.72
2023-01-26T13:59:33.101Z,53.30
2023-01-26T14:02:01.266Z,46.55
2023-01-26T14:04:31.493Z,45.47
2023-01-26T14:07:03.390Z,47.75
2023-01-26T14:09:43.891Z,42.78
2023-01-26T14:12:21.940Z,49.85
2023-01-26T14:14:52.604Z,51.20
2023-01-26T14:17:27.231Z,49.38
2023-01-26T14:19:55.449Z,41.90
2023-01-26T14:22:23.273Z,51.72
2023-01-26T14:24:53.097Z,55.20
2023-01-26T14:27:32.415Z,68.03
2023-01-26T14:30:09.095Z,55.10
2023-01-26T14:32:37.200Z,54.38
2023-01-26T14:35:22.566Z,61.80
2023-01-26T14:37:50.613Z,58.65
2023-01-26T14:40:23.438Z,61.40
2023-01-26T14:42:54.630Z,64.03
2023-01-26T14:45:30.129Z,66.90
2023-01-26T14:48:03.003Z,69.07
2023-01-26T14:50:32.328Z,68.00
2023-01-26T14:53:02.001Z,56.17
2023-01-26T14:55:31.784Z,60.60
2023-01-26T14:58:03.199Z,55.67
2023-01-26T15:00:36.663Z,55.78
2023-01-26T15:03:08.654Z,53.10
2023-01-26T15:05:38.709Z,63.95
2023-01-26T15:08:18.900Z,55.83
2023-01-26T15:11:16.222Z,51.85
2023-01-26T15:13:47.208Z,42.92
2023-01-26T15:16:18.307Z,57.15
2023-01-26T15:18:47.664Z,50.75
2023-01-26T15:21:20.745Z,63.65
2023-01-26T15:23:51.779Z,64.07
2023-01-26T15:26:28.158Z,54.50
2023-01-26T15:29:00.116Z,76.63
2023-01-26T15:31:31.487Z,66.88
2023-01-26T15:34:01.513Z,59.90
2023-01-26T15:36:48.655Z,57.70
2023-01-26T15:39:18.391Z,48.17
2023-01-26T15:41:48.088Z,59.40
2023-01-26T15:44:18.899Z,57.00
2023-01-26T15:46:47.104Z,64.15
2023-01-26T15:49:15.560Z,55.50
2023-01-26T15:51:43.443Z,49.67
2023-01-26T15:54:12.125Z,51.13
2023-01-26T15:56:40.001Z,65.90
2023-01-26T15:59:08.064Z,58.92
2023-01-26T16:01:37.453Z,53.60
2023-01-26T16:04:05.455Z,69.72
2023-01-26T16:06:34.907Z,54.30
2023-01-26T16:09:02.987Z,47.65
2023-01-26T16:11:34.993Z,54.42
2023-01-26T16:14:04.490Z,48.97
2023-01-26T16:16:33.579Z,40.08
2023-01-26T16:19:02.758Z,45.70
2023-01-26T16:21:33.341Z,52.85
2023-01-26T16:24:01.312Z,48.67
2023-01-26T16:26:30.557Z,48.28
2023-01-26T16:28:58.569Z,44.58
2023-01-26T16:31:29.589Z,43.33
2023-01-26T16:33:58.136Z,38.50
2023-01-26T16:36:27.783Z,39.47
2023-01-26T16:38:55.747Z,43.50
2023-01-26T16:41:26.765Z,48.13
2023-01-26T16:43:56.805Z,44.85
2023-01-26T16:46:25.443Z,44.20
2023-01-26T16:48:53.766Z,44.45
2023-01-26T16:51:25.718Z,42.10
2023-01-26T16:53:55.523Z,47.22
2023-01-26T16:56:24.646Z,46.00
2023-01-26T16:58:52.819Z,47.00
2023-01-26T17:01:23.075Z,45.70
2023-01-26T17:03:51.481Z,53.40
2023-01-26T17:06:21.998Z,51.63
2023-01-26T17:08:50.497Z,55.55
2023-01-26T17:11:21.251Z,58.65
2023-01-26T17:13:49.701Z,57.75
2023-01-26T17:16:19.806Z,46.78
2023-01-26T17:18:48.701Z,40.78
2023-01-26T17:21:19.048Z,41.58
2023-01-26T17:23:50.567Z,47.58
2023-01-26T17:26:21.187Z,41.25
2023-01-26T17:28:51.403Z,48.45
2023-01-26T17:31:21.118Z,44.90
2023-01-26T17:33:50.600Z,42.15
2023-01-26T17:36:19.544Z,50.95
2023-01-26T17:38:48.663Z,37.25
2023-01-26T17:41:16.698Z,34.53
2023-01-26T17:43:46.109Z,39.85
2023-01-26T17:46:17.348Z,40.65
2023-01-26T17:48:45.860Z,37.90
2023-01-26T17:51:16.451Z,33.97
2023-01-26T17:53:46.487Z,34.03
2023-01-26T17:56:16.577Z,42.42
2023-01-26T17:58:48.375Z,31.52
2023-01-26T18:01:16.849Z,42.88
2023-01-26T18:03:45.331Z,33.70
2023-01-26T18:06:13.731Z,36.95
2023-01-26T18:08:41.662Z,38.05
2023-01-26T18:11:11.566Z,32.63
2023-01-26T18:13:39.799Z,38.97
2023-01-26T18:16:11.236Z,38.17
2023-01-26T18:18:40.605Z,37.45
2023-01-26T18:21:13.219Z,37.80
2023-01-26T18:26:08.863Z,41.05
2023-01-26T18:28:36.892Z,41.85
2023-01-26T18:31:13.668Z,41.03
2023-01-26T18:33:41.982Z,32.03
2023-01-26T18:36:12.151Z,34.58
2023-01-26T18:38:41.335Z,33.80
2023-01-26T18:41:12.382Z,32.53
2023-01-26T18:43:40.699Z,33.85
2023-01-26T18:46:09.277Z,31.15
2023-01-26T18:48:38.736Z,32.78
2023-01-26T18:51:08.616Z,35.33
2023-01-26T18:53:38.744Z,33.95
2023-01-26T18:56:09.128Z,33.72
2023-01-26T18:58:39.062Z,34.97
2023-01-26T19:01:12.796Z,36.20
2023-01-26T19:03:47.814Z,28.92
2023-01-26T19:06:18.240Z,26.65
2023-01-26T19:08:46.592Z,37.78
2023-01-26T19:11:14.701Z,34.03
2023-01-26T19:13:45.394Z,29.58
2023-01-26T19:16:13.637Z,30.83
2023-01-26T19:18:42.871Z,29.25
2023-01-26T19:21:11.194Z,30.70
2023-01-26T19:23:40.026Z,26.55
2023-01-26T19:26:12.247Z,34.65
2023-01-26T19:28:41.984Z,34.40
2023-01-26T19:31:10.506Z,28.42
2023-01-26T19:33:38.758Z,27.05
2023-01-26T19:36:09.799Z,30.50
2023-01-26T19:38:40.121Z,27.58
2023-01-26T19:41:08.174Z,32.42
2023-01-26T19:43:36.054Z,35.35
2023-01-26T19:46:05.607Z,24.30
2023-01-26T19:48:33.633Z,28.40
2023-01-26T19:51:03.434Z,28.17
2023-01-26T19:53:34.183Z,24.95
2023-01-26T19:56:06.747Z,25.52
2023-01-26T20:01:04.524Z,29.85
2023-01-26T20:03:32.720Z,28.08
2023-01-26T20:06:01.292Z,38.50
2023-01-26T20:08:30.832Z,32.72
2023-01-26T20:11:05.817Z,35.25
2023-01-26T20:13:35.017Z,28.42
2023-01-26T20:16:06.700Z,28.67
2023-01-26T20:18:38.549Z,23.60
2023-01-26T20:21:07.603Z,26.20
2023-01-26T20:23:36.618Z,27.75
2023-01-26T20:26:09.686Z,24.38
2023-01-26T20:28:40.097Z,20.50
2023-01-26T20:31:10.774Z,21.60
2023-01-26T20:33:39.819Z,21.60
2023-01-26T20:36:09.142Z,21.13
2023-01-26T20:38:37.922Z,22.08
2023-01-26T20:41:11.971Z,32.58
2023-01-26T20:43:49.548Z,26.52
2023-01-26T20:46:25.567Z,24.48
2023-01-26T20:48:55.750Z,24.88
2023-01-26T20:51:26.316Z,31.88
2023-01-26T20:53:54.233Z,24.17
2023-01-26T20:56:24.047Z,20.77
2023-01-26T20:58:53.416Z,25.80
2023-01-26T21:01:22.184Z,23.15
2023-01-26T21:03:51.234Z,26.85
2023-01-26T21:06:20.921Z,21.80
2023-01-26T21:08:49.705Z,24.27
2023-01-26T21:11:18.274Z,23.10
2023-01-26T21:13:48.345Z,23.42
2023-01-26T21:16:17.753Z,24.77
2023-01-26T21:18:46.403Z,21.05
2023-01-26T21:21:17.493Z,23.42
2023-01-26T21:23:46.624Z,21.45
2023-01-26T21:26:16.166Z,21.00
2023-01-26T21:28:44.303Z,24.45
2023-01-26T21:31:15.122Z,19.67
2023-01-26T21:33:44.865Z,20.25
2023-01-26T21:36:14.677Z,24.02
2023-01-26T21:38:44.199Z,20.05
2023-01-26T21:41:32.576Z,21.70
2023-01-26T21:44:02.237Z,23.42
2023-01-26T21:46:31.830Z,20.33
2023-01-26T21:49:00.143Z,21.58
2023-01-26T21:51:45.612Z,19.52
2023-01-26T21:54:14.277Z,17.98
2023-01-26T21:56:42.252Z,21.20
2023-01-26T21:59:11.310Z,14.88
2023-01-26T22:01:42.978Z,19.05
2023-01-26T22:04:13.516Z,20.03
2023-01-26T22:06:41.617Z,16.15
2023-01-26T22:09:11.620Z,16.85
2023-01-26T22:11:39.693Z,18.17
2023-01-26T22:14:07.772Z,15.70
2023-01-26T22:16:35.698Z,17.75
2023-01-26T22:19:05.033Z,11.40
2023-01-26T22:21:33.377Z,20.13
2023-01-26T22:24:01.403Z,11.65
2023-01-26T22:26:29.425Z,15.13
2023-01-26T22:28:58.827Z,13.25
2023-01-26T22:31:29.052Z,12.77
2023-01-26T22:33:58.947Z,13.88
2023-01-26T22:36:29.497Z,14.45
2023-01-26T22:38:57.484Z,13.88
2023-01-26T22:41:28.374Z,13.63
2023-01-26T22:43:58.972Z,15.40
2023-01-26T22:46:28.315Z,15.38
2023-01-26T22:48:57.753Z,15.07
2023-01-26T22:51:28.637Z,15.07
2023-01-26T22:53:58.051Z,16.13
2023-01-26T22:56:26.786Z,15.40
2023-01-26T22:58:58.501Z,12.52
2023-01-26T23:01:28.235Z,13.30
2023-01-26T23:06:36.337Z,9.73
2023-01-26T23:09:04.726Z,12.35
2023-01-26T23:11:32.961Z,9.98
2023-01-26T23:14:01.688Z,10.43
2023-01-26T23:16:30.168Z,13.93
2023-01-26T23:18:59.427Z,10.20
2023-01-26T23:21:29.237Z,14.65
2023-01-26T23:23:58.858Z,9.65
2023-01-26T23:26:26.718Z,11.77
2023-01-26T23:28:55.107Z,9.27
2023-01-26T23:31:23.283Z,10.38
2023-01-26T23:33:51.358Z,9.43
2023-01-26T23:36:20.577Z,12.02
2023-01-26T23:38:48.367Z,11.70
2023-01-26T23:41:17.944Z,9.32
2023-01-26T23:43:45.917Z,7.47
2023-01-26T23:46:13.802Z,8.88
2023-01-26T23:48:41.674Z,8.60
2023-01-26T23:51:11.384Z,11.85
2023-01-26T23:53:39.633Z,11.02
2023-01-26T23:56:09.694Z,9.57
2023-01-26T23:58:38.981Z,15.35
